Time;durP1;ratioP1;P1;durP2;ratioP2;P2;SDS_P1;SDS_P2;PMS_P1;PMS_P2;Temp;Humidity;BMP_temperature;BMP_pressure;BME280_temperature;BME280_humidity;BME280_pressure;Samples;Min_cycle;Max_cycle;Signal;HPM_P1;HPM_P2
2021/11/22 00:04:35;;;;;;;51.10;29.50;;;;;;;9.09;64.14;98595.15;212800;1322;139359;-60
2021/11/22 00:09:38;;;;;;;49.00;29.80;;;;;;;9.03;64.31;98598.50;212463;1325;139669;-60
2021/11/22 00:14:41;;;;;;;52.40;30.30;;;;;;;9.01;64.45;98601.48;212686;1322;140047;-60
2021/11/22 00:19:44;;;;;;;48.20;29.40;;;;;;;8.98;64.54;98603.45;211908;1330;139112;-60
2021/11/22 00:24:47;;;;;;;44.00;28.90;;;;;;;8.98;64.60;98601.50;212237;1328;140483;-59
2021/11/22 00:29:51;;;;;;;53.30;29.20;;;;;;;9.00;64.51;98604.02;212230;1326;140998;-62
2021/11/22 00:35:09;;;;;;;49.50;29.90;;;;;;;9.04;64.71;98610.48;212095;1329;139356;-61
2021/11/22 00:40:18;;;;;;;49.60;29.90;;;;;;;9.05;64.72;98619.67;213033;1322;140033;-60
2021/11/22 00:45:21;;;;;;;48.60;29.70;;;;;;;9.04;64.55;98625.39;212205;1330;139262;-59
2021/11/22 00:50:26;;;;;;;49.60;29.10;;;;;;;8.99;64.72;98626.34;211878;1325;139327;-59
2021/11/22 00:55:29;;;;;;;50.70;29.60;;;;;;;8.92;64.60;98629.44;212593;1325;139509;-59
2021/11/22 01:00:33;;;;;;;51.70;29.80;;;;;;;8.85;64.79;98628.83;212263;1326;140037;-61
2021/11/22 01:05:36;;;;;;;52.40;29.50;;;;;;;8.80;64.88;98634.11;212818;1322;139712;-60
2021/11/22 01:10:40;;;;;;;48.20;30.20;;;;;;;8.73;64.97;98638.39;212430;1322;139497;-59
2021/11/22 01:15:43;;;;;;;50.60;29.10;;;;;;;8.69;65.05;98642.58;212804;1325;140286;-58
2021/11/22 01:20:46;;;;;;;47.30;30.60;;;;;;;8.75;65.29;98645.70;212808;1325;139925;-59
2021/11/22 01:25:50;;;;;;;54.60;32.30;;;;;;;8.81;65.31;98647.50;211999;1328;139795;-60
2021/11/22 01:30:53;;;;;;;51.20;31.00;;;;;;;8.80;65.22;98639.77;212291;1324;138908;-60
2021/11/22 01:35:56;;;;;;;52.90;31.20;;;;;;;8.78;65.21;98636.70;212083;1322;141041;-59
2021/11/22 01:41:01;;;;;;;55.90;32.70;;;;;;;8.72;65.20;98639.34;212254;1325;139377;-58
2021/11/22 01:46:04;;;;;;;56.70;33.30;;;;;;;8.65;65.17;98642.95;212114;1329;139184;-61
2021/11/22 01:51:07;;;;;;;53.50;33.20;;;;;;;8.59;65.40;98647.73;212216;1325;139726;-59
2021/11/22 01:56:11;;;;;;;56.70;33.60;;;;;;;8.54;65.38;98646.81;212486;1325;139463;-60
2021/11/22 02:01:14;;;;;;;54.90;32.90;;;;;;;8.49;65.33;98644.46;211997;1326;139749;-59
2021/11/22 02:06:20;;;;;;;56.00;33.70;;;;;;;8.42;65.44;98646.46;211952;1324;139464;-61
2021/11/22 02:11:24;;;;;;;49.40;30.50;;;;;;;8.40;65.58;98651.36;211867;1332;140694;-60
2021/11/22 02:16:28;;;;;;;54.40;33.90;;;;;;;8.42;65.62;98659.18;212108;1325;140512;-59
2021/11/22 02:21:31;;;;;;;53.20;33.20;;;;;;;8.40;65.57;98666.91;212707;1325;139953;-58
2021/11/22 02:26:36;;;;;;;54.80;33.00;;;;;;;8.39;65.78;98666.81;212674;1326;139715;-59
2021/11/22 02:31:40;;;;;;;53.90;32.60;;;;;;;8.45;66.09;98669.48;212151;1325;139157;-58
2021/11/22 02:36:48;;;;;;;53.90;32.70;;;;;;;8.48;65.94;98670.66;212199;1325;139790;-60
2021/11/22 02:41:51;;;;;;;57.90;34.10;;;;;;;8.51;65.95;98672.45;211861;1329;139397;-58
2021/11/22 02:46:54;;;;;;;56.30;33.60;;;;;;;8.52;65.95;98674.14;212093;1332;139828;-59
2021/11/22 02:51:57;;;;;;;55.00;33.40;;;;;;;8.51;65.86;98682.69;212115;1323;138868;-58
2021/11/22 02:57:00;;;;;;;53.00;32.10;;;;;;;8.51;65.91;98685.67;212082;1325;139868;-61
2021/11/22 03:02:05;;;;;;;54.50;32.60;;;;;;;8.48;65.91;98687.46;212251;1326;139646;-56
2021/11/22 03:07:11;;;;;;;54.20;31.10;;;;;;;8.45;65.91;98686.91;212287;1324;140066;-60
2021/11/22 03:12:15;;;;;;;52.20;31.20;;;;;;;8.45;65.88;98692.27;212772;1323;171745;-60
2021/11/22 03:17:19;;;;;;;55.90;32.80;;;;;;;8.47;66.13;98691.23;212346;1328;139460;-60
2021/11/22 03:22:22;;;;;;;51.60;33.20;;;;;;;8.49;66.06;98689.52;212719;1325;141111;-59
2021/11/22 03:27:25;;;;;;;53.90;32.30;;;;;;;8.47;65.95;98689.46;212442;1325;140032;-59
2021/11/22 03:32:28;;;;;;;55.10;32.90;;;;;;;8.48;66.20;98694.58;212092;1328;139771;-60
2021/11/22 03:37:32;;;;;;;57.00;33.30;;;;;;;8.47;66.01;98698.34;212226;1326;140467;-59
2021/11/22 03:42:39;;;;;;;52.80;31.90;;;;;;;8.44;66.01;98707.67;212658;1325;139597;-60
2021/11/22 03:47:42;;;;;;;55.90;31.80;;;;;;;8.39;65.98;98723.02;211980;1327;139347;-58
2021/11/22 03:52:46;;;;;;;54.00;32.10;;;;;;;8.30;65.90;98731.42;213293;1322;139450;-60
2021/11/22 03:57:49;;;;;;;45.40;27.90;;;;;;;8.30;66.10;98728.11;212734;1321;140066;-60
2021/11/22 04:02:52;;;;;;;48.80;28.80;;;;;;;8.34;66.09;98732.68;211821;1329;140153;-60
2021/11/22 04:07:55;;;;;;;42.00;26.90;;;;;;;8.39;66.31;98730.23;212431;1328;139582;-59
2021/11/22 04:12:58;;;;;;;45.40;28.80;;;;;;;8.44;66.22;98739.36;211733;1331;139768;-60
2021/11/22 04:18:01;;;;;;;46.10;28.00;;;;;;;8.43;66.04;98749.47;212009;1325;139816;-61
2021/11/22 04:23:05;;;;;;;48.50;28.20;;;;;;;8.38;66.13;98750.61;211934;1330;139757;-60
2021/11/22 04:28:10;;;;;;;44.30;28.00;;;;;;;8.35;66.31;98747.95;212234;1330;139761;-60
2021/11/22 04:33:13;;;;;;;44.10;27.80;;;;;;;8.39;66.33;98749.91;213035;1322;139396;-61
2021/11/22 04:38:16;;;;;;;339.70;232.50;;;;;;;8.42;66.55;98755.55;211488;1337;139074;-61
2021/11/22 04:43:19;;;;;;;48.30;28.10;;;;;;;8.56;66.85;98762.53;212305;1328;139949;-61
2021/11/22 04:48:23;;;;;;;48.10;27.20;;;;;;;8.64;66.75;98767.54;212723;1325;140353;-59
2021/11/22 04:53:26;;;;;;;43.60;26.50;;;;;;;8.65;66.28;98768.18;211895;1324;141013;-60
2021/11/22 04:58:30;;;;;;;44.20;26.30;;;;;;;8.59;66.06;98769.23;212309;1323;139817;-60
2021/11/22 05:03:33;;;;;;;44.70;26.40;;;;;;;8.57;66.35;98772.89;211862;1325;140031;-59
2021/11/22 05:08:36;;;;;;;48.50;28.00;;;;;;;8.56;66.35;98770.11;212390;1325;139291;-60
2021/11/22 05:13:40;;;;;;;226.10;149.60;;;;;;;8.57;66.54;98776.10;212132;1330;140492;-60
2021/11/22 05:18:43;;;;;;;49.30;30.90;;;;;;;8.63;66.61;98789.48;211764;1329;141019;-58
2021/11/22 05:23:48;;;;;;;48.00;27.20;;;;;;;8.59;66.28;98793.81;211904;1328;139264;-60
2021/11/22 05:28:51;;;;;;;42.50;26.50;;;;;;;8.50;66.15;98809.14;211854;1331;139620;-57
2021/11/22 05:33:54;;;;;;;45.70;25.40;;;;;;;8.43;66.25;98812.05;212222;1325;140744;-60
2021/11/22 05:38:57;;;;;;;42.30;25.50;;;;;;;8.42;66.40;98808.77;212307;1322;141293;-59
2021/11/22 05:44:01;;;;;;;37.90;24.80;;;;;;;8.44;66.50;98811.63;213091;1322;141774;-60
2021/11/22 05:49:04;;;;;;;42.80;25.20;;;;;;;8.44;66.39;98815.17;212224;1327;140209;-60
2021/11/22 05:54:07;;;;;;;42.00;24.20;;;;;;;8.44;66.57;98817.48;212830;1323;139440;-59
2021/11/22 05:59:10;;;;;;;40.50;24.40;;;;;;;8.39;66.49;98817.55;212351;1323;139312;-58
2021/11/22 06:04:13;;;;;;;42.60;24.60;;;;;;;8.32;66.43;98820.05;212541;1325;139520;-59
2021/11/22 06:09:16;;;;;;;45.00;24.50;;;;;;;8.27;66.57;98822.27;212220;1328;139179;-58
2021/11/22 06:14:19;;;;;;;46.50;25.70;;;;;;;8.27;66.77;98828.49;212214;1328;141450;-59
2021/11/22 06:19:22;;;;;;;42.70;23.70;;;;;;;8.24;66.81;98837.64;211689;1332;139334;-58
2021/11/22 06:24:25;;;;;;;37.90;23.70;;;;;;;8.21;66.74;98851.59;212596;1325;140409;-58
2021/11/22 06:29:28;;;;;;;42.90;24.20;;;;;;;8.23;66.84;98866.88;211732;1331;142564;-57
2021/11/22 06:34:34;;;;;;;45.10;25.30;;;;;;;8.25;66.99;98873.46;212351;1325;139516;-56
2021/11/22 06:39:38;;;;;;;41.10;22.10;;;;;;;8.28;67.04;98883.55;212113;1322;140268;-56
2021/11/22 06:44:41;;;;;;;39.90;24.50;;;;;;;8.26;66.93;98887.89;212038;1331;139309;-57
2021/11/22 06:49:44;;;;;;;42.70;24.70;;;;;;;8.27;66.92;98892.79;212092;1324;139560;-56
2021/11/22 06:54:49;;;;;;;41.00;25.10;;;;;;;8.26;67.05;98900.61;212431;1325;139440;-55
2021/11/22 06:59:52;;;;;;;46.30;25.90;;;;;;;8.27;67.30;98896.70;212267;1322;139221;-58
2021/11/22 07:04:55;;;;;;;45.20;26.40;;;;;;;8.27;67.26;98897.06;212516;1322;139252;-56
2021/11/22 07:09:59;;;;;;;43.00;25.90;;;;;;;8.28;67.30;98903.37;212322;1324;139437;-59
2021/11/22 07:15:03;;;;;;;42.20;26.40;;;;;;;8.33;67.38;98905.75;212373;1327;139846;-59
2021/11/22 07:20:06;;;;;;;46.30;26.60;;;;;;;8.35;67.38;98911.98;212262;1325;139594;-59
2021/11/22 07:25:10;;;;;;;45.50;27.30;;;;;;;8.34;67.34;98911.85;212288;1322;139593;-58
2021/11/22 07:30:19;;;;;;;47.00;27.50;;;;;;;8.35;67.67;98914.85;212825;1323;140074;-60
2021/11/22 07:35:23;;;;;;;42.20;26.00;;;;;;;8.37;67.64;98923.20;212412;1328;139951;-60
2021/11/22 07:40:26;;;;;;;48.30;28.10;;;;;;;8.35;67.72;98929.16;212612;1328;140362;-60
2021/11/22 07:45:30;;;;;;;44.30;26.50;;;;;;;8.32;67.74;98933.38;212251;1322;139151;-59
2021/11/22 07:50:33;;;;;;;46.10;27.20;;;;;;;8.27;67.94;98944.58;212368;1324;140266;-58
2021/11/22 07:55:36;;;;;;;43.30;25.50;;;;;;;8.28;68.13;98951.08;212113;1325;141355;-58
2021/11/22 08:00:39;;;;;;;44.10;26.10;;;;;;;8.33;68.35;98955.59;212398;1325;139884;-58
2021/11/22 08:05:44;;;;;;;42.10;25.10;;;;;;;8.37;68.39;98961.77;211978;1325;139252;-59
2021/11/22 08:10:52;;;;;;;45.90;24.70;;;;;;;8.41;68.33;98964.92;211947;1331;140495;-59
2021/11/22 08:15:55;;;;;;;44.10;23.60;;;;;;;8.44;68.45;98970.02;211945;1325;139841;-60
2021/11/22 08:20:58;;;;;;;35.80;22.00;;;;;;;8.47;68.54;98980.88;212209;1328;139748;-57
2021/11/22 08:26:01;;;;;;;36.40;22.60;;;;;;;8.44;68.48;98986.63;212593;1323;140196;-57
2021/11/22 08:31:05;;;;;;;35.20;21.40;;;;;;;8.44;68.69;98991.61;212849;1323;139937;-60
2021/11/22 08:36:07;;;;;;;39.20;23.70;;;;;;;8.46;68.72;98993.80;212301;1326;140671;-61
2021/11/22 08:41:11;;;;;;;37.60;23.50;;;;;;;8.54;68.76;98997.98;211990;1325;139963;-62
2021/11/22 08:46:14;;;;;;;39.00;23.80;;;;;;;8.60;68.91;99005.42;212552;1325;139618;-57
2021/11/22 08:51:17;;;;;;;41.30;24.60;;;;;;;8.62;68.85;99012.04;212474;1325;142072;-57
2021/11/22 08:56:20;;;;;;;38.90;22.80;;;;;;;8.60;68.79;99015.69;212455;1328;140111;-58
2021/11/22 09:01:24;;;;;;;44.50;25.40;;;;;;;8.58;68.96;99014.90;212473;1325;140333;-57
2021/11/22 09:06:27;;;;;;;160.40;98.00;;;;;;;8.61;69.19;99014.39;211602;1328;139902;-56
2021/11/22 09:11:31;;;;;;;41.10;23.80;;;;;;;8.68;69.59;99015.62;211804;1329;142415;-56
2021/11/22 09:16:34;;;;;;;38.30;22.60;;;;;;;8.77;69.48;99017.25;212067;1328;140393;-62
2021/11/22 09:21:37;;;;;;;36.90;21.60;;;;;;;8.82;69.36;99013.27;212931;1326;139283;-56
2021/11/22 09:26:41;;;;;;;42.80;24.20;;;;;;;8.83;69.30;99010.69;212170;1328;139214;-56
2021/11/22 09:31:44;;;;;;;37.80;22.40;;;;;;;8.84;69.47;99013.29;211834;1329;139411;-57
2021/11/22 09:36:47;;;;;;;36.70;21.60;;;;;;;8.84;69.51;99017.73;212197;1325;139201;-60
2021/11/22 09:41:51;;;;;;;37.40;22.30;;;;;;;8.82;69.48;99024.41;212295;1329;139304;-55
2021/11/22 09:46:54;;;;;;;37.80;22.20;;;;;;;8.75;69.39;99029.15;211968;1329;139170;-57
2021/11/22 09:51:57;;;;;;;39.00;22.10;;;;;;;8.75;69.63;99027.23;211971;1330;140000;-57
2021/11/22 09:57:01;;;;;;;42.30;23.10;;;;;;;8.80;69.64;99026.61;212266;1329;140301;-60
2021/11/22 10:02:04;;;;;;;38.80;21.50;;;;;;;8.81;69.83;99033.11;211988;1331;139757;-57
2021/11/22 10:07:10;;;;;;;30.10;19.30;;;;;;;8.84;69.83;99034.73;212057;1328;139792;-59
2021/11/22 10:12:18;;;;;;;17.40;10.80;;;;;;;8.97;70.08;99030.09;212717;1323;139345;-61
2021/11/22 10:17:38;;;;;;;13.00;7.30;;;;;;;8.96;69.77;99030.16;212005;1330;139064;-58
2021/11/22 10:22:56;;;;;;;80.60;45.30;;;;;;;8.88;69.58;99042.65;212153;1324;139543;-55
2021/11/22 10:28:10;;;;;;;11.10;6.50;;;;;;;8.93;69.86;99036.66;211908;1330;139709;-58
2021/11/22 10:33:18;;;;;;;9.20;5.00;;;;;;;8.97;69.54;99040.00;211979;1329;142701;-59
2021/11/22 10:38:27;;;;;;;11.10;5.80;;;;;;;8.97;69.55;99040.18;212255;1325;139081;-58
2021/11/22 10:43:35;;;;;;;10.30;5.90;;;;;;;8.97;69.28;99043.55;212267;1325;139703;-57
2021/11/22 10:48:39;;;;;;;10.60;6.40;;;;;;;8.97;69.62;99044.98;212370;1322;139519;-60
2021/11/22 10:53:45;;;;;;;10.00;6.50;;;;;;;8.95;69.36;99046.98;211606;1334;139614;-59
2021/11/22 10:58:53;;;;;;;11.50;6.30;;;;;;;8.94;69.34;99052.70;212093;1331;139954;-57
2021/11/22 11:04:01;;;;;;;11.70;6.50;;;;;;;8.93;69.14;99054.71;212146;1331;139257;-59
2021/11/22 11:09:07;;;;;;;12.40;5.80;;;;;;;8.94;69.23;99060.31;212909;1328;140309;-59
2021/11/22 11:14:12;;;;;;;11.70;6.40;;;;;;;9.00;69.39;99063.36;212144;1331;162590;-59
2021/11/22 11:19:18;;;;;;;13.50;6.60;;;;;;;9.04;69.08;99067.56;211930;1329;139390;-60
2021/11/22 11:24:21;;;;;;;12.60;6.70;;;;;;;9.06;69.28;99065.90;212285;1329;140295;-58
2021/11/22 11:29:24;;;;;;;12.10;6.20;;;;;;;9.07;69.13;99066.70;212157;1329;141881;-58
2021/11/22 11:34:33;;;;;;;13.40;6.80;;;;;;;9.07;68.89;99070.08;211957;1331;140219;-57
2021/11/22 11:39:55;;;;;;;15.70;8.00;;;;;;;9.03;68.83;99070.80;212568;1330;139822;-59
2021/11/22 11:45:28;;;;;;;14.20;7.60;;;;;;;8.99;68.91;99077.02;211645;1338;139990;-59
2021/11/22 11:50:38;;;;;;;11.80;6.90;;;;;;;8.99;68.97;99083.05;212301;1327;140205;-58
2021/11/22 11:56:14;;;;;;;11.90;7.00;;;;;;;9.01;68.90;99078.70;212323;1322;140552;-58
2021/11/22 12:01:19;;;;;;;11.80;6.60;;;;;;;9.02;68.98;99085.74;212196;1327;140071;-57
2021/11/22 12:06:57;;;;;;;12.30;7.50;;;;;;;9.01;69.08;99095.14;212107;1323;139462;-59
2021/11/22 12:12:13;;;;;;;14.70;8.00;;;;;;;8.99;68.88;99098.77;212201;1325;140380;-61
2021/11/22 12:17:34;;;;;;;8.70;4.90;;;;;;;8.99;68.90;99108.34;212594;1322;139099;-58
2021/11/22 12:22:40;;;;;;;7.10;3.80;;;;;;;8.94;68.73;99104.55;212812;1323;139267;-59
2021/11/22 12:27:43;;;;;;;8.40;3.80;;;;;;;8.87;68.51;99108.33;212159;1325;142180;-57
2021/11/22 12:32:46;;;;;;;8.60;3.60;;;;;;;8.83;68.77;99113.33;211732;1326;139673;-58
2021/11/22 12:37:50;;;;;;;6.40;3.40;;;;;;;8.84;68.61;99114.70;211907;1330;139865;-57
2021/11/22 12:42:58;;;;;;;9.60;4.00;;;;;;;8.83;68.74;99116.83;211779;1329;139246;-58
2021/11/22 12:48:26;;;;;;;9.90;4.10;;;;;;;8.90;69.05;99122.85;212434;1325;139790;-60
2021/11/22 12:53:30;;;;;;;11.10;5.30;;;;;;;8.93;68.90;99125.54;212033;1326;139056;-58
2021/11/22 12:58:34;;;;;;;8.80;5.30;;;;;;;8.87;68.65;99130.96;211988;1331;139627;-57
2021/11/22 13:03:50;;;;;;;13.40;5.90;;;;;;;8.80;68.64;99133.48;212552;1325;139286;-58
2021/11/22 13:08:54;;;;;;;11.70;5.60;;;;;;;8.74;69.00;99144.92;212146;1327;140226;-60
2021/11/22 13:14:23;;;;;;;13.50;5.90;;;;;;;8.72;68.77;99151.19;212463;1328;140159;-60
2021/11/22 13:19:26;;;;;;;11.10;6.10;;;;;;;8.73;68.98;99159.61;211928;1322;139773;-58
2021/11/22 13:24:32;;;;;;;12.20;6.30;;;;;;;8.73;69.03;99160.88;211800;1327;139570;-60
2021/11/22 13:29:37;;;;;;;13.90;6.80;;;;;;;8.69;69.01;99164.09;211732;1330;139331;-60
2021/11/22 13:34:40;;;;;;;12.30;5.90;;;;;;;8.67;69.09;99169.02;212556;1324;139916;-60
2021/11/22 13:39:47;;;;;;;12.20;6.20;;;;;;;8.65;69.10;99177.07;211971;1325;139404;-58
2021/11/22 13:44:55;;;;;;;16.60;6.10;;;;;;;8.64;69.12;99177.80;211895;1328;139799;-59
2021/11/22 13:49:58;;;;;;;13.30;8.30;;;;;;;8.65;69.10;99180.05;212268;1325;139774;-59
2021/11/22 13:55:02;;;;;;;16.20;8.40;;;;;;;8.66;69.05;99186.91;212612;1324;139832;-60
2021/11/22 14:00:10;;;;;;;17.70;9.00;;;;;;;8.66;69.04;99191.51;213471;1323;140183;-58
2021/11/22 14:05:16;;;;;;;18.60;8.50;;;;;;;8.65;68.85;99195.08;212334;1325;139780;-59
2021/11/22 14:10:30;;;;;;;15.30;9.00;;;;;;;8.59;68.49;99196.99;212224;1330;139887;-59
2021/11/22 14:15:36;;;;;;;15.20;9.80;;;;;;;8.54;68.68;99200.80;211843;1326;139328;-59
2021/11/22 14:20:45;;;;;;;20.40;13.00;;;;;;;8.49;68.62;99201.94;212156;1325;139891;-58
2021/11/22 14:25:58;;;;;;;18.70;12.10;;;;;;;8.46;68.66;99208.58;212219;1324;139677;-57
2021/11/22 14:31:04;;;;;;;16.30;10.10;;;;;;;8.45;68.52;99215.05;212074;1328;140821;-58
2021/11/22 14:36:08;;;;;;;;;;;;;;;8.44;68.52;99220.91;212942;1322;140454;-59
2021/11/22 14:41:11;;;;;;;17.50;10.40;;;;;;;8.40;68.63;99227.14;212602;1325;125793;-60
2021/11/22 14:46:29;;;;;;;18.60;11.30;;;;;;;8.36;68.49;99233.69;212482;1325;139313;-57
2021/11/22 14:51:53;;;;;;;20.50;12.10;;;;;;;8.34;68.53;99236.10;211587;1328;141946;-55
2021/11/22 14:57:01;;;;;;;22.50;12.50;;;;;;;8.32;68.64;99247.67;211914;1331;139368;-57
2021/11/22 15:02:07;;;;;;;21.80;12.50;;;;;;;8.25;68.49;99255.58;212584;1323;139415;-58
2021/11/22 15:07:19;;;;;;;23.00;13.10;;;;;;;8.16;68.32;99264.13;212444;1329;139431;-59
2021/11/22 15:12:27;;;;;;;20.70;12.60;;;;;;;8.15;68.44;99269.89;211705;1329;141052;-59
2021/11/22 15:17:33;;;;;;;20.30;12.20;;;;;;;8.19;68.63;99270.23;212351;1324;141358;-57
2021/11/22 15:22:38;;;;;;;17.00;11.10;;;;;;;8.23;68.64;99278.32;212328;1325;139766;-60
2021/11/22 15:27:43;;;;;;;21.70;12.20;;;;;;;8.24;68.63;99281.63;211867;1331;139200;-59
2021/11/22 15:32:46;;;;;;;19.20;12.30;;;;;;;8.23;68.54;99284.32;212332;1325;139700;-58
2021/11/22 15:37:50;;;;;;;20.60;12.90;;;;;;;8.20;68.46;99285.67;211968;1330;139415;-59
2021/11/22 15:42:53;;;;;;;21.50;11.80;;;;;;;8.20;68.57;99293.33;212617;1329;139489;-59
2021/11/22 15:47:56;;;;;;;18.00;11.20;;;;;;;8.18;68.50;99300.27;211874;1323;140817;-58
2021/11/22 15:53:02;;;;;;;19.80;11.50;;;;;;;8.18;68.57;99309.15;212054;1325;139160;-59
2021/11/22 15:58:05;;;;;;;21.70;11.90;;;;;;;8.20;68.52;99311.36;212525;1323;140852;-60
2021/11/22 16:03:10;;;;;;;19.30;11.90;;;;;;;8.30;68.60;99315.27;211946;1326;140417;-59
2021/11/22 16:08:14;;;;;;;14.50;9.20;;;;;;;8.34;68.53;99321.12;212640;1328;138952;-59
2021/11/22 16:13:17;;;;;;;18.60;12.80;;;;;;;8.30;68.55;99326.94;212627;1325;139330;-59
2021/11/22 16:18:28;;;;;;;19.80;12.70;;;;;;;8.28;68.55;99333.55;212388;1325;139434;-58
2021/11/22 16:23:32;;;;;;;22.80;13.00;;;;;;;8.30;68.55;99339.84;211960;1330;141346;-58
2021/11/22 16:28:39;;;;;;;20.20;13.00;;;;;;;8.25;68.41;99346.29;212081;1325;140104;-60
2021/11/22 16:33:42;;;;;;;22.40;14.10;;;;;;;8.21;68.38;99349.30;212002;1330;139478;-59
2021/11/22 16:38:45;;;;;;;22.40;14.00;;;;;;;8.15;68.42;99356.79;212285;1322;141951;-59
2021/11/22 16:43:48;;;;;;;19.70;13.00;;;;;;;8.15;68.72;99365.14;212116;1325;140704;-59
2021/11/22 16:48:51;;;;;;;21.60;13.60;;;;;;;8.17;68.56;99364.66;211660;1332;140875;-57
2021/11/22 16:53:54;;;;;;;19.80;13.20;;;;;;;8.20;68.68;99369.14;212138;1323;139488;-58
2021/11/22 16:58:57;;;;;;;25.90;15.90;;;;;;;8.21;68.59;99376.33;211707;1331;141248;-59
2021/11/22 17:04:02;;;;;;;26.30;15.20;;;;;;;8.24;68.71;99379.00;211739;1332;139283;-58
2021/11/22 17:09:06;;;;;;;25.10;15.60;;;;;;;8.23;68.43;99380.48;212999;1325;139674;-59
2021/11/22 17:14:10;;;;;;;28.00;16.00;;;;;;;8.20;68.36;99388.41;211721;1332;140128;-56
2021/11/22 17:19:17;;;;;;;27.10;17.40;;;;;;;8.14;68.25;99396.45;211714;1329;139929;-59
2021/11/22 17:24:21;;;;;;;25.50;16.60;;;;;;;8.11;68.30;99405.94;212618;1325;139804;-58
2021/11/22 17:29:24;;;;;;;24.60;15.60;;;;;;;8.08;68.24;99413.55;212295;1321;141072;-58
2021/11/22 17:34:27;;;;;;;24.60;15.10;;;;;;;8.08;68.26;99414.74;212548;1325;140234;-57
2021/11/22 17:39:31;;;;;;;22.90;14.70;;;;;;;8.12;68.31;99419.16;212468;1322;140260;-58
2021/11/22 17:44:35;;;;;;;23.40;14.80;;;;;;;8.16;68.25;99427.61;212007;1325;139144;-57
2021/11/22 17:49:38;;;;;;;22.60;14.70;;;;;;;8.21;68.21;99440.67;211788;1320;140378;-59
2021/11/22 17:54:41;;;;;;;24.60;15.50;;;;;;;8.16;67.72;99446.56;212109;1329;139497;-58
2021/11/22 17:59:44;;;;;;;24.70;15.50;;;;;;;8.10;67.75;99450.70;212244;1328;140390;-58
2021/11/22 18:04:47;;;;;;;21.90;15.90;;;;;;;8.08;67.83;99457.67;212582;1323;140404;-59
2021/11/22 18:09:50;;;;;;;25.80;17.30;;;;;;;8.07;67.85;99463.20;212826;1328;139336;-59
2021/11/22 18:14:53;;;;;;;22.90;15.70;;;;;;;8.00;67.64;99469.88;211925;1329;139494;-59
2021/11/22 18:19:57;;;;;;;37.60;23.50;;;;;;;7.94;67.69;99477.58;211608;1330;141789;-59
2021/11/22 18:25:00;;;;;;;23.60;15.90;;;;;;;7.94;67.85;99482.52;211944;1325;139995;-58
2021/11/22 18:30:04;;;;;;;24.50;17.10;;;;;;;7.94;67.76;99481.45;212427;1329;140449;-59
2021/11/22 18:35:08;;;;;;;24.60;17.10;;;;;;;7.94;67.72;99481.64;213029;1328;140037;-57
2021/11/22 18:40:12;;;;;;;22.60;15.90;;;;;;;7.91;67.65;99484.41;211888;1326;139691;-61
2021/11/22 18:45:15;;;;;;;23.90;16.20;;;;;;;7.88;67.62;99493.59;212547;1328;139619;-58
2021/11/22 18:50:24;;;;;;;24.70;16.60;;;;;;;7.83;67.55;99501.71;212086;1327;140411;-59
2021/11/22 18:55:27;;;;;;;42.20;28.10;;;;;;;7.95;68.51;99508.80;211803;1325;139803;-58
2021/11/22 19:00:31;;;;;;;28.20;17.60;;;;;;;8.09;68.08;99511.55;212183;1324;139260;-59
2021/11/22 19:05:36;;;;;;;26.10;17.60;;;;;;;7.99;67.54;99514.99;212316;1323;140219;-59
2021/11/22 19:10:39;;;;;;;25.70;17.40;;;;;;;7.94;67.57;99520.17;212641;1323;141798;-59
2021/11/22 19:15:43;;;;;;;25.10;17.60;;;;;;;7.91;67.61;99524.55;212336;1330;222486;-60
2021/11/22 19:20:46;;;;;;;27.10;17.40;;;;;;;7.89;67.80;99532.73;212235;1322;139540;-59
2021/11/22 19:25:51;;;;;;;25.10;17.50;;;;;;;7.87;67.76;99541.50;212322;1324;140188;-57
2021/11/22 19:30:54;;;;;;;26.50;17.00;;;;;;;7.83;67.82;99547.30;211956;1330;139705;-59
2021/11/22 19:35:57;;;;;;;22.50;16.40;;;;;;;7.79;67.63;99551.16;211745;1331;140006;-62
2021/11/22 19:41:02;;;;;;;25.40;16.50;;;;;;;7.76;67.55;99553.79;212038;1325;139328;-59
2021/11/22 19:46:05;;;;;;;24.30;16.90;;;;;;;7.72;67.75;99559.23;211979;1330;139051;-59
2021/11/22 19:51:08;;;;;;;564.50;393.20;;;;;;;7.67;67.67;99563.16;212203;1322;139842;-58
2021/11/22 19:56:14;;;;;;;30.40;17.80;;;;;;;7.76;68.13;99568.80;212298;1325;142370;-58
2021/11/22 20:01:18;;;;;;;26.60;15.70;;;;;;;7.84;67.75;99572.70;212427;1325;140336;-58
2021/11/22 20:06:23;;;;;;;23.80;13.70;;;;;;;7.86;67.63;99570.86;212559;1325;140788;-57
2021/11/22 20:11:26;;;;;;;25.20;15.10;;;;;;;7.86;67.54;99580.41;211937;1329;139204;-60
2021/11/22 20:16:35;;;;;;;19.20;13.40;;;;;;;7.86;67.42;99586.25;212393;1328;139326;-59
2021/11/22 20:21:39;;;;;;;20.00;13.40;;;;;;;7.82;67.37;99594.32;212377;1328;139406;-59
2021/11/22 20:26:43;;;;;;;27.20;18.60;;;;;;;7.77;67.14;99597.71;212332;1325;139829;-58
2021/11/22 20:31:50;;;;;;;27.30;18.40;;;;;;;7.78;67.54;99605.95;211907;1330;139520;-62
2021/11/22 20:36:53;;;;;;;22.40;14.40;;;;;;;7.79;67.29;99611.04;212548;1325;140396;-57
2021/11/22 20:41:57;;;;;;;21.60;14.50;;;;;;;7.73;67.04;99620.52;211989;1325;139563;-59
2021/11/22 20:47:00;;;;;;;21.20;14.80;;;;;;;7.65;66.91;99624.88;211641;1323;139541;-67
2021/11/22 20:52:03;;;;;;;24.20;15.00;;;;;;;7.56;66.98;99627.91;212332;1328;139344;-61
2021/11/22 20:57:08;;;;;;;22.10;14.50;;;;;;;7.51;66.73;99639.38;212697;1329;140108;-57
2021/11/22 21:02:12;;;;;;;21.00;14.10;;;;;;;7.49;66.92;99640.70;212277;1325;140506;-59
2021/11/22 21:07:15;;;;;;;23.40;15.00;;;;;;;7.47;66.83;99646.27;212243;1330;139431;-58
2021/11/22 21:12:18;;;;;;;22.60;15.30;;;;;;;7.48;66.98;99649.23;212263;1330;140007;-63
2021/11/22 21:17:22;;;;;;;24.70;14.70;;;;;;;7.47;66.98;99648.55;212176;1325;139878;-64
2021/11/22 21:22:25;;;;;;;22.30;15.50;;;;;;;7.44;66.80;99649.73;212526;1325;139606;-60
2021/11/22 21:27:28;;;;;;;22.50;14.90;;;;;;;7.39;67.02;99655.42;211820;1325;138971;-59
2021/11/22 21:32:31;;;;;;;20.40;14.40;;;;;;;7.36;66.82;99661.35;212292;1325;140606;-58
2021/11/22 21:37:36;;;;;;;23.10;14.40;;;;;;;7.29;66.77;99665.14;212124;1325;139430;-62
2021/11/22 21:42:39;;;;;;;19.60;12.80;;;;;;;7.24;66.66;99669.59;212661;1325;139336;-64
2021/11/22 21:47:42;;;;;;;17.80;12.70;;;;;;;7.17;66.47;99671.96;212280;1329;139696;-62
2021/11/22 21:52:48;;;;;;;19.10;12.20;;;;;;;7.08;66.39;99675.81;212312;1325;139364;-65
2021/11/22 21:57:52;;;;;;;19.60;11.80;;;;;;;7.04;66.37;99684.63;212136;1323;140285;-59
2021/11/22 22:02:56;;;;;;;15.90;11.20;;;;;;;7.04;66.15;99690.08;212426;1322;140132;-64
2021/11/22 22:07:59;;;;;;;19.30;11.80;;;;;;;7.05;66.32;99696.58;211595;1333;139610;-60
2021/11/22 22:13:02;;;;;;;19.20;11.50;;;;;;;7.05;66.33;99698.88;211979;1325;139458;-59
2021/11/22 22:18:06;;;;;;;19.40;11.50;;;;;;;7.04;66.05;99706.30;212969;1322;139527;-56
2021/11/22 22:23:09;;;;;;;17.90;12.30;;;;;;;6.95;66.01;99715.13;212299;1327;139192;-60
2021/11/22 22:28:12;;;;;;;14.30;10.50;;;;;;;6.89;65.92;99717.27;212102;1325;139913;-62
2021/11/22 22:33:15;;;;;;;13.30;10.20;;;;;;;6.84;65.62;99721.70;212816;1324;140587;-57
2021/11/22 22:38:21;;;;;;;12.40;9.40;;;;;;;6.76;65.71;99723.54;212234;1325;139695;-57
2021/11/22 22:43:28;;;;;;;;;;;;;;;6.71;65.61;99729.20;212364;1326;139888;-58
2021/11/22 22:48:31;;;;;;;13.00;8.30;;;;;;;6.63;65.45;99733.36;212984;1325;125627;-63
2021/11/22 22:53:35;;;;;;;13.80;9.00;;;;;;;6.52;65.58;99733.55;211777;1324;138991;-62
2021/11/22 22:58:40;;;;;;;14.30;9.50;;;;;;;6.45;65.42;99735.04;211796;1329;138968;-59
2021/11/22 23:03:44;;;;;;;79.90;46.50;;;;;;;6.40;65.40;99741.55;211895;1329;140410;-58
2021/11/22 23:08:47;;;;;;;20.30;12.70;;;;;;;6.43;65.64;99739.35;212504;1324;140598;-57
2021/11/22 23:13:50;;;;;;;13.80;8.90;;;;;;;6.40;65.33;99740.67;212400;1325;140163;-62